createdAt,value
2022-12-09T00:04:43.741Z,19.40
2022-12-09T00:09:45.516Z,19.65
2022-12-09T00:14:47.227Z,17.05
2022-12-09T00:19:48.946Z,18.27
2022-12-09T00:24:50.936Z,14.65
2022-12-09T00:29:52.777Z,25.73
2022-12-09T00:34:54.499Z,15.10
2022-12-09T00:39:56.345Z,13.27
2022-12-09T00:44:58.427Z,13.95
2022-12-09T00:50:00.396Z,12.32
2022-12-09T00:55:02.810Z,16.35
2022-12-09T01:00:54.820Z,12.35
2022-12-09T01:05:56.654Z,9.82
2022-12-09T01:10:58.411Z,10.82
2022-12-09T01:16:00.191Z,9.88
2022-12-09T01:21:02.548Z,12.18
2022-12-09T01:26:05.602Z,11.07
2022-12-09T01:31:18.214Z,10.85
2022-12-09T01:36:23.342Z,12.90
2022-12-09T01:41:25.641Z,10.25
2022-12-09T01:46:27.517Z,11.27
2022-12-09T01:51:30.568Z,11.63
2022-12-09T01:56:35.956Z,12.85
2022-12-09T02:01:39.672Z,13.00
2022-12-09T02:06:41.520Z,13.27
2022-12-09T02:12:04.662Z,13.55
2022-12-09T02:17:26.346Z,14.23
2022-12-09T02:22:35.327Z,14.55
2022-12-09T02:28:12.967Z,13.75
2022-12-09T02:33:34.242Z,14.30
2022-12-09T02:38:41.126Z,14.48
2022-12-09T02:43:50.299Z,13.85
2022-12-09T02:48:59.413Z,14.38
2022-12-09T02:54:11.391Z,13.15
2022-12-09T02:59:14.161Z,15.10
2022-12-09T03:04:22.689Z,14.38
2022-12-09T03:09:32.976Z,14.63
2022-12-09T03:19:59.065Z,13.68
2022-12-09T03:25:06.985Z,13.52
2022-12-09T03:30:11.271Z,14.18
2022-12-09T03:35:22.597Z,14.05
2022-12-09T03:40:28.423Z,14.15
2022-12-09T03:45:32.460Z,13.45
2022-12-09T03:50:49.574Z,13.43
2022-12-09T03:56:00.604Z,13.88
2022-12-09T04:01:03.036Z,13.95
2022-12-09T04:06:04.856Z,14.77
2022-12-09T04:11:06.874Z,15.15
2022-12-09T04:16:10.061Z,14.90
2022-12-09T04:21:13.238Z,14.23
2022-12-09T04:26:19.856Z,15.00
2022-12-09T04:31:22.082Z,15.32
2022-12-09T04:36:23.855Z,15.45
2022-12-09T04:41:25.856Z,12.95
2022-12-09T04:46:27.699Z,14.73
2022-12-09T04:51:34.264Z,11.45
2022-12-09T04:56:41.760Z,12.13
2022-12-09T05:01:43.673Z,11.43
2022-12-09T05:06:45.580Z,11.18
2022-12-09T05:11:48.046Z,11.38
2022-12-09T05:16:50.186Z,12.18
2022-12-09T05:21:51.975Z,12.15
2022-12-09T05:26:53.737Z,12.77
2022-12-09T05:31:55.356Z,13.98
2022-12-09T05:36:57.285Z,14.68
2022-12-09T05:41:59.376Z,12.13
2022-12-09T05:47:01.524Z,13.05
2022-12-09T05:52:03.847Z,13.15
2022-12-09T05:57:05.893Z,12.40
2022-12-09T06:02:10.282Z,18.63
2022-12-09T06:07:12.502Z,15.02
2022-12-09T06:12:15.344Z,14.38
2022-12-09T06:17:17.928Z,13.55
2022-12-09T06:22:19.740Z,15.25
2022-12-09T06:27:21.776Z,14.73
2022-12-09T06:32:23.789Z,14.52
2022-12-09T06:37:25.739Z,15.18
2022-12-09T06:42:27.755Z,16.67
2022-12-09T06:47:29.770Z,16.70
2022-12-09T06:52:31.686Z,17.00
2022-12-09T06:57:33.459Z,15.75
2022-12-09T07:02:36.742Z,16.45
2022-12-09T07:07:39.590Z,16.35
2022-12-09T07:12:41.816Z,15.63
2022-12-09T07:17:43.977Z,16.48
2022-12-09T07:22:46.013Z,16.00
2022-12-09T07:27:47.836Z,16.10
2022-12-09T07:32:50.111Z,17.15
2022-12-09T07:37:52.260Z,16.95
2022-12-09T07:42:59.075Z,17.88
2022-12-09T07:48:01.701Z,19.30
2022-12-09T07:53:03.947Z,18.10
2022-12-09T07:58:05.887Z,18.60
2022-12-09T08:03:08.052Z,17.75
2022-12-09T08:08:10.105Z,18.95
2022-12-09T08:13:12.963Z,19.25
2022-12-09T08:18:14.959Z,16.27
2022-12-09T08:23:16.749Z,15.13
2022-12-09T08:28:18.704Z,15.07
2022-12-09T08:33:20.739Z,15.35
2022-12-09T08:38:22.801Z,15.45
2022-12-09T08:43:24.593Z,15.68
2022-12-09T08:48:26.500Z,14.65
2022-12-09T08:53:28.351Z,14.70
2022-12-09T08:58:31.416Z,16.27
2022-12-09T09:03:33.360Z,16.23
2022-12-09T09:08:36.173Z,16.50
2022-12-09T09:13:42.924Z,17.92
2022-12-09T09:18:45.555Z,16.77
2022-12-09T09:23:48.218Z,17.40
2022-12-09T09:28:50.974Z,17.60
2022-12-09T09:33:53.418Z,17.27
2022-12-09T09:38:57.405Z,16.85
2022-12-09T09:43:59.949Z,17.58
2022-12-09T09:49:03.980Z,18.30
2022-12-09T09:54:08.909Z,19.55
2022-12-09T09:59:21.293Z,18.52
2022-12-09T10:04:36.946Z,19.27
2022-12-09T10:09:48.967Z,20.85
2022-12-09T10:14:56.247Z,20.70
2022-12-09T10:20:28.666Z,20.80
2022-12-09T10:25:35.812Z,19.38
2022-12-09T10:30:44.206Z,18.00
2022-12-09T10:35:47.695Z,20.17
2022-12-09T10:41:39.592Z,19.83
2022-12-09T10:46:41.840Z,18.80
2022-12-09T10:51:49.540Z,20.88
2022-12-09T10:57:03.604Z,20.23
2022-12-09T11:02:08.949Z,21.02
2022-12-09T11:07:22.933Z,23.90
2022-12-09T11:12:30.907Z,22.33
2022-12-09T11:22:41.191Z,22.50
2022-12-09T11:27:48.913Z,21.55
2022-12-09T11:33:07.886Z,23.50
2022-12-09T11:38:36.364Z,22.33
2022-12-09T11:43:37.965Z,21.15
2022-12-09T11:49:01.340Z,22.98
2022-12-09T11:54:13.323Z,23.25
2022-12-09T11:59:24.124Z,22.25
2022-12-09T12:05:15.713Z,21.70
2022-12-09T12:10:34.942Z,22.38
2022-12-09T12:16:07.163Z,22.75
2022-12-09T12:21:26.548Z,21.45
2022-12-09T12:26:52.348Z,22.60
2022-12-09T12:32:02.543Z,24.17
2022-12-09T12:43:07.225Z,23.75
2022-12-09T12:48:33.114Z,20.75
2022-12-09T12:53:34.805Z,20.65
2022-12-09T12:58:42.499Z,21.23
2022-12-09T13:03:46.936Z,19.67
2022-12-09T13:09:01.428Z,21.27
2022-12-09T13:14:16.120Z,20.58
2022-12-09T13:19:28.414Z,20.65
2022-12-09T13:25:00.293Z,21.23
2022-12-09T13:30:09.956Z,19.55
2022-12-09T13:35:35.947Z,20.73
2022-12-09T13:40:39.132Z,19.35
2022-12-09T13:45:44.194Z,19.25
2022-12-09T13:50:49.394Z,20.13
2022-12-09T13:56:01.601Z,18.92
2022-12-09T14:01:12.374Z,20.95
2022-12-09T14:06:28.088Z,18.40
2022-12-09T14:11:49.821Z,19.90
2022-12-09T14:16:53.568Z,21.50
2022-12-09T14:22:21.053Z,21.30
2022-12-09T14:27:31.759Z,22.83
2022-12-09T14:32:52.407Z,22.60
2022-12-09T14:43:28.842Z,22.90
2022-12-09T14:48:39.138Z,23.00
2022-12-09T14:58:48.209Z,21.85
2022-12-09T15:04:02.647Z,23.85
2022-12-09T15:09:04.388Z,23.70
2022-12-09T15:14:27.680Z,24.92
2022-12-09T15:19:59.265Z,26.08
2022-12-09T15:24:54.448Z,25.60
2022-12-09T15:29:56.478Z,27.30
2022-12-09T15:35:21.042Z,26.13
2022-12-09T15:40:29.055Z,26.48
2022-12-09T15:45:38.147Z,28.38
2022-12-09T15:50:50.935Z,27.35
2022-12-09T15:56:07.965Z,26.40
2022-12-09T16:01:09.963Z,28.20
2022-12-09T16:06:11.999Z,27.73
2022-12-09T16:11:33.982Z,25.77
2022-12-09T16:16:44.308Z,25.27
2022-12-09T16:21:46.083Z,25.27
2022-12-09T16:26:51.486Z,24.40
2022-12-09T16:32:18.947Z,24.98
2022-12-09T16:37:35.705Z,24.02
2022-12-09T16:42:41.015Z,26.67
2022-12-09T16:47:44.982Z,26.02
2022-12-09T16:52:46.837Z,26.35
2022-12-09T16:57:51.575Z,28.08
2022-12-09T17:03:03.511Z,25.42
2022-12-09T17:08:05.370Z,29.88
2022-12-09T17:13:07.253Z,28.05
2022-12-09T17:18:10.218Z,27.30
2022-12-09T17:23:12.268Z,26.25
2022-12-09T17:28:14.186Z,26.85
2022-12-09T17:33:16.718Z,26.17
2022-12-09T17:38:18.995Z,26.13
2022-12-09T17:43:20.823Z,25.27
2022-12-09T17:48:22.612Z,26.35
2022-12-09T17:53:25.018Z,24.52
2022-12-09T17:58:26.762Z,25.88
2022-12-09T18:03:54.258Z,25.42
2022-12-09T18:08:51.412Z,24.63
2022-12-09T18:13:54.121Z,24.05
2022-12-09T18:18:56.241Z,26.38
2022-12-09T18:23:58.074Z,26.58
2022-12-09T18:29:00.270Z,23.88
2022-12-09T18:34:02.141Z,26.05
2022-12-09T18:39:05.202Z,26.85
2022-12-09T18:44:08.768Z,25.45
2022-12-09T18:49:13.711Z,22.33
2022-12-09T18:54:22.850Z,23.85
2022-12-09T18:59:26.393Z,23.70
2022-12-09T19:04:29.798Z,23.33
2022-12-09T19:09:34.798Z,23.85
2022-12-09T19:14:42.194Z,23.75
2022-12-09T19:19:46.481Z,23.98
2022-12-09T19:24:48.279Z,23.95
2022-12-09T19:29:51.057Z,25.95
2022-12-09T19:34:53.065Z,24.27
2022-12-09T19:39:57.090Z,25.20
2022-12-09T19:45:01.980Z,25.55
2022-12-09T19:50:05.535Z,25.73
2022-12-09T19:55:08.481Z,32.75
2022-12-09T20:00:11.414Z,24.92
2022-12-09T20:05:13.211Z,26.38
2022-12-09T20:10:15.090Z,24.42
2022-12-09T20:15:17.156Z,25.65
2022-12-09T20:20:18.853Z,25.52
2022-12-09T20:25:20.688Z,25.98
2022-12-09T20:30:22.361Z,24.85
2022-12-09T20:35:26.396Z,30.27
2022-12-09T20:40:28.263Z,29.63
2022-12-09T20:45:30.096Z,29.65
2022-12-09T20:50:38.220Z,33.22
2022-12-09T20:55:40.595Z,30.35
2022-12-09T21:00:42.463Z,30.73
2022-12-09T21:05:44.265Z,33.28
2022-12-09T21:10:46.137Z,30.15
2022-12-09T21:15:47.992Z,28.83
2022-12-09T21:20:49.797Z,27.77
2022-12-09T21:25:51.828Z,28.23
2022-12-09T21:30:53.763Z,26.02
2022-12-09T21:35:55.551Z,26.75
2022-12-09T21:41:01.985Z,28.33
2022-12-09T21:46:07.350Z,28.13
2022-12-09T21:51:11.260Z,28.27
2022-12-09T21:56:16.453Z,28.35
2022-12-09T22:01:20.957Z,27.67
2022-12-09T22:06:23.472Z,28.23
2022-12-09T22:11:27.906Z,27.92
2022-12-09T22:16:39.040Z,29.02
2022-12-09T22:21:41.032Z,28.90
2022-12-09T22:26:46.107Z,28.08
2022-12-09T22:31:47.909Z,29.95
2022-12-09T22:36:50.104Z,28.35
2022-12-09T22:41:51.767Z,27.60
2022-12-09T22:46:53.921Z,26.73
2022-12-09T22:52:00.402Z,29.58
2022-12-09T22:57:02.493Z,28.17
2022-12-09T23:02:04.317Z,28.00
2022-12-09T23:07:06.100Z,26.92
2022-12-09T23:12:08.073Z,27.83
2022-12-09T23:17:09.726Z,26.80
2022-12-09T23:22:11.370Z,28.40
2022-12-09T23:27:13.047Z,26.10
2022-12-09T23:32:14.717Z,25.90
2022-12-09T23:37:16.452Z,23.63
2022-12-09T23:42:19.653Z,23.80
2022-12-09T23:47:21.372Z,24.63
2022-12-09T23:52:22.972Z,24.13
2022-12-09T23:57:24.574Z,23.80
